createdAt,value
2022-11-07T00:00:18.112Z,12.03
2022-11-07T00:05:34.803Z,10.74
2022-11-07T00:10:37.909Z,8.43
2022-11-07T00:15:40.916Z,6.92
2022-11-07T00:20:44.062Z,5.84
2022-11-07T00:25:47.329Z,5.08
2022-11-07T00:30:50.366Z,6.23
2022-11-07T00:35:53.642Z,10.10
2022-11-07T00:41:03.110Z,11.92
2022-11-07T00:46:08.726Z,11.43
2022-11-07T00:51:18.080Z,8.62
2022-11-07T00:56:25.481Z,6.78
2022-11-07T01:01:32.801Z,5.65
2022-11-07T01:06:40.350Z,4.88
2022-11-07T01:11:45.918Z,6.04
2022-11-07T01:16:50.337Z,9.76
2022-11-07T01:21:53.471Z,11.52
2022-11-07T01:26:56.753Z,12.51
2022-11-07T01:31:59.868Z,11.81
2022-11-07T01:37:03.014Z,8.91
2022-11-07T01:42:06.893Z,7.03
2022-11-07T01:47:11.878Z,5.83
2022-11-07T01:52:21.427Z,4.99
2022-11-07T01:57:30.981Z,6.26
2022-11-07T02:02:35.010Z,10.07
2022-11-07T02:07:39.523Z,11.81
2022-11-07T02:12:43.960Z,11.56
2022-11-07T02:17:47.476Z,8.75
2022-11-07T02:23:20.998Z,6.92
2022-11-07T02:28:27.897Z,6.17
2022-11-07T02:33:31.099Z,9.27
2022-11-07T02:38:37.751Z,11.20
2022-11-07T02:43:50.007Z,12.07
2022-11-07T02:48:59.520Z,10.81
2022-11-07T02:54:02.569Z,8.11
2022-11-07T02:59:05.794Z,6.54
2022-11-07T03:04:09.396Z,5.55
2022-11-07T03:09:12.501Z,6.50
2022-11-07T03:14:15.920Z,10.20
2022-11-07T03:19:19.122Z,12.06
2022-11-07T03:24:22.146Z,11.67
2022-11-07T03:29:25.439Z,9.06
2022-11-07T03:34:28.443Z,7.42
2022-11-07T03:39:31.491Z,6.19
2022-11-07T03:44:34.553Z,5.27
2022-11-07T03:49:37.572Z,6.25
2022-11-07T03:54:40.662Z,10.08
2022-11-07T03:59:43.768Z,11.91
2022-11-07T04:04:46.811Z,11.02
2022-11-07T04:09:50.086Z,8.25
2022-11-07T04:15:12.138Z,6.54
2022-11-07T04:20:15.342Z,5.43
2022-11-07T04:25:18.486Z,6.12
2022-11-07T04:30:27.091Z,9.94
2022-11-07T04:35:33.651Z,11.81
2022-11-07T04:40:36.624Z,11.39
2022-11-07T04:45:40.191Z,9.03
2022-11-07T04:50:44.936Z,7.52
2022-11-07T04:55:48.142Z,6.38
2022-11-07T05:00:51.149Z,7.09
2022-11-07T05:05:54.458Z,10.73
2022-11-07T05:10:57.769Z,12.36
2022-11-07T05:16:00.895Z,11.99
2022-11-07T05:21:03.979Z,9.28
2022-11-07T05:26:07.398Z,7.53
2022-11-07T05:31:17.152Z,6.39
2022-11-07T05:36:24.406Z,5.59
2022-11-07T05:41:27.468Z,7.06
2022-11-07T05:46:30.569Z,10.27
2022-11-07T05:51:33.677Z,11.86
2022-11-07T05:56:37.705Z,12.83
2022-11-07T06:01:41.036Z,12.34
2022-11-07T06:06:44.532Z,9.77
2022-11-07T06:11:47.549Z,8.14
2022-11-07T06:16:50.743Z,7.14
2022-11-07T06:21:53.748Z,8.34
2022-11-07T06:26:56.983Z,11.49
2022-11-07T06:31:59.987Z,12.78
2022-11-07T06:37:03.592Z,13.35
2022-11-07T06:42:06.828Z,13.80
2022-11-07T06:47:09.995Z,12.78
2022-11-07T06:52:13.106Z,10.25
2022-11-07T06:57:16.313Z,10.20
2022-11-07T07:02:43.825Z,12.66
2022-11-07T07:07:42.693Z,13.84
2022-11-07T07:12:45.819Z,14.51
2022-11-07T07:17:49.518Z,13.06
2022-11-07T07:22:58.973Z,10.64
2022-11-07T07:28:04.744Z,10.65
2022-11-07T07:33:07.848Z,13.15
2022-11-07T07:38:12.634Z,14.30
2022-11-07T07:43:16.107Z,13.81
2022-11-07T07:48:20.463Z,11.19
2022-11-07T07:53:24.779Z,10.88
2022-11-07T07:58:28.097Z,13.23
2022-11-07T08:03:50.560Z,14.17
2022-11-07T08:08:54.375Z,13.61
2022-11-07T08:14:01.283Z,11.25
2022-11-07T08:19:04.885Z,9.75
2022-11-07T08:24:09.140Z,10.39
2022-11-07T08:29:12.637Z,13.17
2022-11-07T08:34:15.741Z,14.28
2022-11-07T08:39:18.949Z,13.94
2022-11-07T08:44:21.953Z,11.59
2022-11-07T08:49:25.208Z,10.26
2022-11-07T08:54:31.136Z,12.17
2022-11-07T08:59:34.443Z,14.13
2022-11-07T09:04:37.671Z,14.06
2022-11-07T09:09:40.864Z,11.78
2022-11-07T09:14:43.971Z,10.29
2022-11-07T09:19:47.075Z,11.06
2022-11-07T09:24:50.096Z,13.48
2022-11-07T09:29:53.185Z,14.64
2022-11-07T09:35:00.568Z,14.33
2022-11-07T09:40:40.976Z,12.14
2022-11-07T09:45:56.983Z,10.74
2022-11-07T09:51:00.192Z,12.35
2022-11-07T09:56:05.741Z,14.54
2022-11-07T10:01:19.011Z,15.80
2022-11-07T10:06:27.121Z,15.09
2022-11-07T10:11:50.196Z,12.43
2022-11-07T10:17:37.230Z,12.66
2022-11-07T10:23:03.923Z,15.23
2022-11-07T10:28:06.891Z,14.95
2022-11-07T10:33:19.827Z,12.70
2022-11-07T10:38:30.584Z,11.31
2022-11-07T10:43:39.018Z,12.02
2022-11-07T10:49:01.266Z,15.05
2022-11-07T10:54:06.559Z,14.55
2022-11-07T10:59:21.520Z,12.43
2022-11-07T11:04:32.602Z,11.26
2022-11-07T11:09:37.275Z,12.21
2022-11-07T11:14:40.916Z,15.14
2022-11-07T11:19:53.523Z,15.11
2022-11-07T11:25:14.862Z,13.13
2022-11-07T11:30:20.976Z,12.13
2022-11-07T11:35:49.845Z,14.50
2022-11-07T11:41:10.533Z,16.19
2022-11-07T11:46:33.740Z,14.45
2022-11-07T11:52:06.952Z,12.79
2022-11-07T11:57:38.731Z,14.75
2022-11-07T12:03:15.079Z,15.12
2022-11-07T12:08:30.420Z,13.19
2022-11-07T12:14:21.650Z,14.21
2022-11-07T12:19:49.644Z,14.99
2022-11-07T12:25:12.006Z,12.98
2022-11-07T12:30:43.069Z,11.82
2022-11-07T12:36:05.859Z,13.11
2022-11-07T12:41:45.889Z,16.00
2022-11-07T12:46:59.975Z,15.30
2022-11-07T12:52:18.421Z,13.25
2022-11-07T12:57:25.421Z,12.15
2022-11-07T13:03:06.003Z,13.20
2022-11-07T13:09:00.309Z,16.03
2022-11-07T13:14:45.727Z,15.59
2022-11-07T13:20:28.036Z,13.27
2022-11-07T13:25:34.902Z,12.48
2022-11-07T13:30:40.397Z,15.12
2022-11-07T13:35:55.568Z,15.58
2022-11-07T13:41:08.176Z,13.35
2022-11-07T13:46:23.353Z,12.96
2022-11-07T13:51:29.297Z,15.22
2022-11-07T13:56:59.717Z,13.92
2022-11-07T14:02:02.931Z,12.18
2022-11-07T14:07:06.265Z,13.59
2022-11-07T14:12:20.275Z,15.45
2022-11-07T14:17:34.031Z,13.85
2022-11-07T14:22:38.082Z,12.15
2022-11-07T14:27:47.124Z,13.13
2022-11-07T14:32:57.688Z,15.51
2022-11-07T14:38:15.758Z,15.30
2022-11-07T14:43:24.051Z,13.01
2022-11-07T14:48:29.511Z,11.70
2022-11-07T14:54:00.434Z,10.95
2022-11-07T14:59:04.847Z,13.23
2022-11-07T15:04:38.265Z,15.51
2022-11-07T15:09:41.475Z,15.32
2022-11-07T15:14:45.938Z,13.13
2022-11-07T15:20:07.039Z,11.70
2022-11-07T15:25:54.573Z,12.61
2022-11-07T15:31:01.591Z,15.50
2022-11-07T15:36:05.542Z,15.36
2022-11-07T15:41:09.024Z,13.07
2022-11-07T15:46:38.984Z,11.69
2022-11-07T15:51:42.099Z,12.41
2022-11-07T15:56:46.817Z,14.90
2022-11-07T16:01:49.914Z,15.13
2022-11-07T16:06:53.845Z,12.95
2022-11-07T16:11:57.151Z,11.57
2022-11-07T16:17:00.181Z,12.14
2022-11-07T16:22:03.464Z,14.69
2022-11-07T16:27:07.496Z,15.88
2022-11-07T16:32:17.616Z,14.90
2022-11-07T16:37:21.696Z,12.69
2022-11-07T16:42:25.006Z,11.80
2022-11-07T16:47:32.070Z,14.13
2022-11-07T16:52:35.321Z,15.69
2022-11-07T16:57:38.520Z,15.37
2022-11-07T17:02:41.628Z,13.03
2022-11-07T17:07:44.958Z,11.52
2022-11-07T17:12:48.361Z,11.83
2022-11-07T17:17:57.953Z,14.33
2022-11-07T17:23:02.551Z,15.51
2022-11-07T17:28:07.751Z,15.05
2022-11-07T17:33:11.029Z,12.69
2022-11-07T17:38:17.466Z,11.25
2022-11-07T17:43:21.021Z,11.63
2022-11-07T17:48:24.134Z,14.24
2022-11-07T17:53:27.257Z,15.44
2022-11-07T17:58:30.544Z,15.05
2022-11-07T18:03:33.765Z,12.70
2022-11-07T18:08:51.599Z,11.17
2022-11-07T18:13:58.069Z,11.62
2022-11-07T18:19:02.425Z,14.05
2022-11-07T18:24:06.450Z,14.80
2022-11-07T18:29:14.088Z,14.31
2022-11-07T18:34:17.488Z,12.24
2022-11-07T18:39:22.540Z,10.93
2022-11-07T18:44:25.950Z,11.43
2022-11-07T18:49:29.186Z,14.06
2022-11-07T18:54:32.570Z,15.05
2022-11-07T18:59:35.800Z,14.63
2022-11-07T19:04:39.084Z,12.50
2022-11-07T19:09:42.501Z,11.33
2022-11-07T19:14:45.602Z,13.19
2022-11-07T19:19:48.816Z,14.89
2022-11-07T19:24:52.259Z,14.64
2022-11-07T19:29:55.399Z,12.53
2022-11-07T19:34:58.646Z,11.48
2022-11-07T19:40:01.667Z,14.06
2022-11-07T19:45:05.810Z,15.50
2022-11-07T19:50:09.177Z,15.05
2022-11-07T19:55:13.426Z,12.70
2022-11-07T20:00:17.537Z,12.49
2022-11-07T20:05:27.221Z,15.03
2022-11-07T20:10:30.523Z,15.09
2022-11-07T20:15:33.628Z,12.80
2022-11-07T20:20:36.882Z,11.37
2022-11-07T20:25:43.529Z,11.69
2022-11-07T20:30:46.667Z,14.42
2022-11-07T20:36:02.084Z,15.77
2022-11-07T20:41:07.080Z,15.39
2022-11-07T20:46:15.075Z,13.10
2022-11-07T20:51:22.745Z,11.68
2022-11-07T20:56:28.230Z,10.80
2022-11-07T21:01:36.456Z,11.46
2022-11-07T21:06:40.120Z,14.12
2022-11-07T21:11:43.227Z,15.04
2022-11-07T21:16:46.750Z,15.74
2022-11-07T21:21:50.467Z,15.24
2022-11-07T21:26:53.503Z,13.10
2022-11-07T21:31:57.501Z,11.71
2022-11-07T21:37:00.602Z,12.09
2022-11-07T21:42:04.831Z,14.49
2022-11-07T21:47:07.945Z,15.65
2022-11-07T21:52:11.675Z,15.11
2022-11-07T21:57:14.868Z,12.93
2022-11-07T22:02:18.145Z,12.84
2022-11-07T22:07:21.286Z,14.91
2022-11-07T22:12:24.388Z,15.81
2022-11-07T22:17:27.498Z,15.34
2022-11-07T22:22:30.599Z,13.09
2022-11-07T22:27:34.119Z,11.66
2022-11-07T22:32:37.229Z,12.00
2022-11-07T22:37:40.535Z,14.64
2022-11-07T22:42:43.670Z,15.77
2022-11-07T22:47:46.959Z,15.47
2022-11-07T22:52:50.364Z,13.16
2022-11-07T22:57:54.391Z,11.63
2022-11-07T23:02:58.777Z,12.11
2022-11-07T23:08:01.935Z,14.59
2022-11-07T23:13:05.169Z,15.40
2022-11-07T23:18:08.252Z,16.03
2022-11-07T23:23:11.258Z,14.52
2022-11-07T23:28:14.674Z,12.56
2022-11-07T23:33:18.499Z,12.53
2022-11-07T23:38:21.530Z,14.75
2022-11-07T23:43:24.706Z,15.66
2022-11-07T23:48:46.552Z,15.28
2022-11-07T23:54:08.196Z,12.92
2022-11-07T23:59:31.162Z,11.41
